createdAt,value
2017-11-04T00:00:50.934Z,33.72
2017-11-04T00:01:56.802Z,34.35
2017-11-04T00:03:02.350Z,33.42
2017-11-04T00:04:08.554Z,33.50
2017-11-04T00:05:14.118Z,34.05
2017-11-04T00:06:19.678Z,33.20
2017-11-04T00:07:25.303Z,32.53
2017-11-04T00:08:31.059Z,33.63
2017-11-04T00:09:37.397Z,32.38
2017-11-04T00:10:44.786Z,34.50
2017-11-04T00:11:50.825Z,34.63
2017-11-04T00:12:58.869Z,35.35
2017-11-04T00:14:05.329Z,34.75
2017-11-04T00:15:11.543Z,33.13
2017-11-04T00:16:17.586Z,33.95
2017-11-04T00:17:23.347Z,33.30
2017-11-04T00:18:29.554Z,33.55
2017-11-04T00:19:35.680Z,31.48
2017-11-04T00:20:41.818Z,32.70
2017-11-04T00:21:48.087Z,33.60
2017-11-04T00:22:54.330Z,30.98
2017-11-04T00:24:00.789Z,30.92
2017-11-04T00:25:08.251Z,31.42
2017-11-04T00:26:14.380Z,32.05
2017-11-04T00:27:20.757Z,31.00
2017-11-04T00:28:28.325Z,30.05
2017-11-04T00:29:36.202Z,30.90
2017-11-04T00:30:41.983Z,30.43
2017-11-04T00:31:47.785Z,31.00
2017-11-04T00:32:53.330Z,29.85
2017-11-04T00:33:58.933Z,29.70
2017-11-04T00:35:05.294Z,29.58
2017-11-04T00:36:13.684Z,30.88
2017-11-04T00:37:19.720Z,30.30
2017-11-04T00:38:25.929Z,30.67
2017-11-04T00:39:33.298Z,31.02
2017-11-04T00:40:38.803Z,29.90
2017-11-04T00:41:44.346Z,29.75
2017-11-04T00:42:49.997Z,29.65
2017-11-04T00:43:55.848Z,31.27
2017-11-04T00:45:01.580Z,29.67
2017-11-04T00:46:07.280Z,29.58
2017-11-04T00:47:12.948Z,29.52
2017-11-04T00:48:18.641Z,29.42
2017-11-04T00:49:24.262Z,29.10
2017-11-04T00:50:29.853Z,31.05
2017-11-04T00:51:35.617Z,30.25
2017-11-04T00:52:41.455Z,30.30
2017-11-04T00:53:47.040Z,29.52
2017-11-04T00:54:52.604Z,29.27
2017-11-04T00:55:58.208Z,29.37
2017-11-04T00:57:03.831Z,30.20
2017-11-04T00:58:09.474Z,30.88
2017-11-04T00:59:15.079Z,28.95
2017-11-04T01:00:20.906Z,28.60
2017-11-04T01:01:26.481Z,29.75
2017-11-04T01:02:32.407Z,29.58
2017-11-04T01:03:37.976Z,29.52
2017-11-04T01:04:44.181Z,29.70
2017-11-04T01:05:49.930Z,29.95
2017-11-04T01:06:55.545Z,27.75
2017-11-04T01:08:01.812Z,29.48
2017-11-04T01:09:07.331Z,29.98
2017-11-04T01:10:12.817Z,29.48
2017-11-04T01:11:18.332Z,29.23
2017-11-04T01:12:23.862Z,28.95
2017-11-04T01:13:29.707Z,27.80
2017-11-04T01:14:35.170Z,30.15
2017-11-04T01:15:41.057Z,27.80
2017-11-04T01:16:46.766Z,28.58
2017-11-04T01:17:52.334Z,27.90
2017-11-04T01:18:58.188Z,28.17
2017-11-04T01:20:03.688Z,27.83
2017-11-04T01:21:09.128Z,27.70
2017-11-04T01:22:14.590Z,28.35
2017-11-04T01:23:20.060Z,26.87
2017-11-04T01:24:25.889Z,26.93
2017-11-04T01:25:31.382Z,29.33
2017-11-04T01:26:37.243Z,26.27
2017-11-04T01:27:42.739Z,26.60
2017-11-04T01:28:48.410Z,26.45
2017-11-04T01:29:53.859Z,27.90
2017-11-04T01:30:59.344Z,25.35
2017-11-04T01:32:04.798Z,26.62
2017-11-04T01:33:10.200Z,26.55
2017-11-04T01:34:15.760Z,27.80
2017-11-04T01:35:21.661Z,26.60
2017-11-04T01:36:27.127Z,26.08
2017-11-04T01:37:32.627Z,26.58
2017-11-04T01:38:38.145Z,26.30
2017-11-04T01:39:44.148Z,27.65
2017-11-04T01:40:49.850Z,26.90
2017-11-04T01:41:56.151Z,25.35
2017-11-04T01:43:01.611Z,24.70
2017-11-04T01:44:11.886Z,27.25
2017-11-04T01:45:17.347Z,25.65
2017-11-04T01:46:22.774Z,26.80
2017-11-04T01:47:28.403Z,26.42
2017-11-04T01:48:32.923Z,28.40
2017-11-04T01:49:38.649Z,28.42
2017-11-04T01:50:44.467Z,28.92
2017-11-04T01:51:50.286Z,29.90
2017-11-04T01:52:55.885Z,28.35
2017-11-04T01:54:01.068Z,29.05
2017-11-04T01:55:06.489Z,29.92
2017-11-04T01:56:11.868Z,28.97
2017-11-04T01:57:17.410Z,29.92
2017-11-04T01:58:22.839Z,29.20
2017-11-04T01:59:28.359Z,27.87
2017-11-04T02:00:34.712Z,28.12
2017-11-04T02:01:40.496Z,28.05
2017-11-04T02:02:46.124Z,28.90
2017-11-04T02:03:51.672Z,26.83
2017-11-04T02:04:58.516Z,28.62
2017-11-04T02:06:04.422Z,28.10
2017-11-04T02:07:10.839Z,27.10
2017-11-04T02:08:16.262Z,27.25
2017-11-04T02:09:21.994Z,28.00
2017-11-04T02:10:27.411Z,26.70
2017-11-04T02:11:34.116Z,27.27
2017-11-04T02:12:39.676Z,27.87
2017-11-04T02:13:45.343Z,26.80
2017-11-04T02:14:50.797Z,27.10
2017-11-04T02:15:56.265Z,28.83
2017-11-04T02:17:01.667Z,28.65
2017-11-04T02:18:07.116Z,29.12
2017-11-04T02:19:12.701Z,26.20
2017-11-04T02:20:18.578Z,26.75
2017-11-04T02:21:24.092Z,26.40
2017-11-04T02:22:29.552Z,27.90
2017-11-04T02:23:35.043Z,26.27
2017-11-04T02:24:40.629Z,26.55
2017-11-04T02:25:46.138Z,28.90
2017-11-04T02:26:51.601Z,27.90
2017-11-04T02:27:57.029Z,27.05
2017-11-04T02:29:02.937Z,27.17
2017-11-04T02:30:08.686Z,24.80
2017-11-04T02:31:14.207Z,24.73
2017-11-04T02:32:19.653Z,23.97
2017-11-04T02:33:25.184Z,21.50
2017-11-04T02:34:30.673Z,21.10
2017-11-04T02:35:36.059Z,22.33
2017-11-04T02:36:41.825Z,23.30
2017-11-04T02:37:47.274Z,22.20
2017-11-04T02:38:52.734Z,23.80
2017-11-04T02:39:58.161Z,23.00
2017-11-04T02:41:03.619Z,22.17
2017-11-04T02:42:09.263Z,22.30
2017-11-04T02:43:14.887Z,20.47
2017-11-04T02:44:20.407Z,22.20
2017-11-04T02:45:25.834Z,23.60
2017-11-04T02:46:31.874Z,24.67
2017-11-04T02:47:38.141Z,22.30
2017-11-04T02:48:43.568Z,22.97
2017-11-04T02:49:49.282Z,23.53
2017-11-04T02:50:54.719Z,24.73
2017-11-04T02:52:00.272Z,23.50
2017-11-04T02:53:05.705Z,23.43
2017-11-04T02:54:11.123Z,23.40
2017-11-04T02:55:16.576Z,23.93
2017-11-04T02:56:22.625Z,24.00
2017-11-04T02:57:28.173Z,25.00
2017-11-04T02:58:33.577Z,24.20
2017-11-04T02:59:39.018Z,24.40
2017-11-04T03:00:44.398Z,24.60
2017-11-04T03:01:49.788Z,25.47
2017-11-04T03:02:55.357Z,24.17
2017-11-04T03:04:00.909Z,24.37
2017-11-04T03:05:06.783Z,23.87
2017-11-04T03:06:12.591Z,24.87
2017-11-04T03:07:18.025Z,24.10
2017-11-04T03:08:23.866Z,24.30
2017-11-04T03:09:29.796Z,20.63
2017-11-04T03:10:36.037Z,25.30
2017-11-04T03:11:41.525Z,23.70
2017-11-04T03:12:47.036Z,23.70
2017-11-04T03:13:52.948Z,23.67
2017-11-04T03:14:58.355Z,26.53
2017-11-04T03:16:03.934Z,24.00
2017-11-04T03:17:09.450Z,24.87
2017-11-04T03:18:15.092Z,24.27
2017-11-04T03:19:20.643Z,26.03
2017-11-04T03:20:26.799Z,25.13
2017-11-04T03:21:32.549Z,27.35
2017-11-04T03:22:38.144Z,29.08
2017-11-04T03:23:43.836Z,30.52
2017-11-04T03:24:49.237Z,31.45
2017-11-04T03:25:54.675Z,30.45
2017-11-04T03:27:01.011Z,29.63
2017-11-04T03:28:06.470Z,30.58
2017-11-04T03:29:12.392Z,30.47
2017-11-04T03:30:18.303Z,31.20
2017-11-04T03:31:23.726Z,31.58
2017-11-04T03:32:29.158Z,30.92
2017-11-04T03:33:35.345Z,30.60
2017-11-04T03:34:41.057Z,30.42
2017-11-04T03:35:47.388Z,31.80
2017-11-04T03:36:52.843Z,31.40
2017-11-04T03:37:58.397Z,30.58
2017-11-04T03:39:04.051Z,32.77
2017-11-04T03:40:09.666Z,31.40
2017-11-04T03:41:15.180Z,32.33
2017-11-04T03:42:21.004Z,32.47
2017-11-04T03:43:26.553Z,30.62
2017-11-04T03:44:32.059Z,31.55
2017-11-04T03:45:38.645Z,32.72
2017-11-04T03:46:44.056Z,32.58
2017-11-04T03:47:49.587Z,31.85
2017-11-04T03:48:55.019Z,32.63
2017-11-04T03:50:00.805Z,31.55
2017-11-04T03:51:06.210Z,32.25
2017-11-04T03:52:11.628Z,31.20
2017-11-04T03:53:17.110Z,33.00
2017-11-04T03:54:22.541Z,32.72
2017-11-04T03:55:27.985Z,33.78
2017-11-04T03:56:34.462Z,33.67
2017-11-04T03:57:39.893Z,32.13
2017-11-04T03:58:45.892Z,32.28
2017-11-04T03:59:51.805Z,32.05
2017-11-04T04:00:58.073Z,33.13
2017-11-04T04:02:04.700Z,33.58
2017-11-04T04:03:11.153Z,32.25
2017-11-04T04:04:16.955Z,32.03
2017-11-04T04:05:22.741Z,33.03
2017-11-04T04:06:28.544Z,32.53
2017-11-04T04:07:35.129Z,32.88
2017-11-04T04:08:40.539Z,33.00
2017-11-04T04:09:45.949Z,32.28
2017-11-04T04:10:51.358Z,33.55
2017-11-04T04:11:56.939Z,31.85
2017-11-04T04:13:02.355Z,32.40
2017-11-04T04:14:07.793Z,31.95
2017-11-04T04:15:13.200Z,33.90
2017-11-04T04:16:18.600Z,32.58
2017-11-04T04:17:24.186Z,33.85
2017-11-04T04:18:29.593Z,33.83
2017-11-04T04:19:35.294Z,34.78
2017-11-04T04:20:40.712Z,34.03
2017-11-04T04:21:46.151Z,32.92
2017-11-04T04:22:51.572Z,32.60
2017-11-04T04:23:56.961Z,33.35
2017-11-04T04:25:02.388Z,33.50
2017-11-04T04:26:07.806Z,35.45
2017-11-04T04:27:13.227Z,37.05
2017-11-04T04:28:18.678Z,36.05
2017-11-04T04:29:24.098Z,37.90
2017-11-04T04:30:29.567Z,38.08
2017-11-04T04:31:34.997Z,35.15
2017-11-04T04:32:40.406Z,35.93
2017-11-04T04:33:45.864Z,41.72
2017-11-04T04:34:51.277Z,40.75
2017-11-04T04:35:56.747Z,37.10
2017-11-04T04:37:02.543Z,33.53
2017-11-04T04:38:08.090Z,33.55
2017-11-04T04:39:13.810Z,33.65
2017-11-04T04:40:19.324Z,34.03
2017-11-04T04:41:25.273Z,32.72
2017-11-04T04:42:30.839Z,32.35
2017-11-04T04:43:36.309Z,34.03
2017-11-04T04:44:41.767Z,32.60
2017-11-04T04:45:47.275Z,33.60
2017-11-04T04:46:53.151Z,33.45
2017-11-04T04:47:58.640Z,32.08
2017-11-04T04:49:04.135Z,34.90
2017-11-04T04:50:09.672Z,33.97
2017-11-04T04:51:15.173Z,33.47
2017-11-04T04:52:20.575Z,32.67
2017-11-04T04:53:26.060Z,32.58
2017-11-04T04:54:31.458Z,34.97
2017-11-04T04:55:36.835Z,33.85
2017-11-04T04:56:42.613Z,34.95
2017-11-04T04:57:48.377Z,32.88
2017-11-04T04:58:53.777Z,33.05
2017-11-04T04:59:59.222Z,33.22
2017-11-04T05:01:04.660Z,32.37
2017-11-04T05:02:10.275Z,35.42
2017-11-04T05:03:15.694Z,34.83
2017-11-04T05:04:21.620Z,36.10
2017-11-04T05:05:27.045Z,33.97
2017-11-04T05:06:32.483Z,33.50
2017-11-04T05:07:38.607Z,35.25
2017-11-04T05:08:44.300Z,33.88
2017-11-04T05:09:49.692Z,33.03
2017-11-04T05:10:55.181Z,33.70
2017-11-04T05:12:00.591Z,34.53
2017-11-04T05:13:06.016Z,33.60
2017-11-04T05:14:11.458Z,34.13
2017-11-04T05:15:16.902Z,34.55
2017-11-04T05:16:22.294Z,34.13
2017-11-04T05:17:27.780Z,34.28
2017-11-04T05:18:33.625Z,33.33
2017-11-04T05:19:39.086Z,34.90
2017-11-04T05:20:45.277Z,34.33
2017-11-04T05:21:54.250Z,33.28
2017-11-04T05:22:59.732Z,37.60
2017-11-04T05:24:05.967Z,36.83
2017-11-04T05:25:11.430Z,36.10
2017-11-04T05:26:16.872Z,34.83
2017-11-04T05:27:22.883Z,36.00
2017-11-04T05:28:28.478Z,34.60
2017-11-04T05:29:34.005Z,36.90
2017-11-04T05:30:39.415Z,35.28
2017-11-04T05:31:44.865Z,34.42
2017-11-04T05:32:50.286Z,34.20
2017-11-04T05:33:55.943Z,34.70
2017-11-04T05:35:01.458Z,34.37
2017-11-04T05:36:07.829Z,35.10
2017-11-04T05:37:13.368Z,33.97
2017-11-04T05:38:19.251Z,32.10
2017-11-04T05:39:24.825Z,33.08
2017-11-04T05:40:30.292Z,34.25
2017-11-04T05:41:35.728Z,41.35
2017-11-04T05:42:41.127Z,36.63
2017-11-04T05:43:46.635Z,34.22
2017-11-04T05:44:52.310Z,34.67
2017-11-04T05:45:57.724Z,33.92
2017-11-04T05:47:03.236Z,34.00
2017-11-04T05:48:08.679Z,35.25
2017-11-04T05:49:14.518Z,37.20
2017-11-04T05:50:19.991Z,36.38
2017-11-04T05:51:25.424Z,35.10
2017-11-04T05:52:30.826Z,35.50
2017-11-04T05:53:36.229Z,36.40
2017-11-04T05:54:41.624Z,35.92
2017-11-04T05:55:47.829Z,35.38
2017-11-04T05:56:53.229Z,36.28
2017-11-04T05:57:58.664Z,36.60
2017-11-04T05:59:09.674Z,36.00
2017-11-04T06:00:18.832Z,36.88
2017-11-04T06:01:27.772Z,37.35
2017-11-04T06:02:36.169Z,40.70
2017-11-04T06:03:42.344Z,42.10
2017-11-04T06:04:52.328Z,40.40
2017-11-04T06:06:00.388Z,40.78
2017-11-04T06:07:08.216Z,40.75
2017-11-04T06:08:13.657Z,40.28
2017-11-04T06:09:19.086Z,39.63
2017-11-04T06:10:24.519Z,38.70
2017-11-04T06:11:30.717Z,38.42
2017-11-04T06:12:36.669Z,40.12
2017-11-04T06:13:42.134Z,40.05
2017-11-04T06:14:47.577Z,39.83
2017-11-04T06:15:53.086Z,39.00
2017-11-04T06:16:58.535Z,38.42
2017-11-04T06:18:03.982Z,38.08
2017-11-04T06:19:10.888Z,38.30
2017-11-04T06:20:16.292Z,38.03
2017-11-04T06:21:21.787Z,38.30
2017-11-04T06:22:28.193Z,40.63
2017-11-04T06:23:33.715Z,44.92
2017-11-04T06:24:39.137Z,40.78
2017-11-04T06:25:44.565Z,37.13
2017-11-04T06:26:50.067Z,39.85
2017-11-04T06:27:55.515Z,38.70
2017-11-04T06:29:01.155Z,37.95
2017-11-04T06:30:06.904Z,39.38
2017-11-04T06:31:12.354Z,38.28
2017-11-04T06:32:17.799Z,36.90
2017-11-04T06:33:23.265Z,37.30
2017-11-04T06:34:28.935Z,37.10
2017-11-04T06:35:34.832Z,41.03
2017-11-04T06:36:40.263Z,61.17
2017-11-04T06:37:45.751Z,42.75
2017-11-04T06:38:51.243Z,38.55
2017-11-04T06:39:56.711Z,38.28
2017-11-04T06:41:02.132Z,37.22
2017-11-04T06:42:07.581Z,38.00
2017-11-04T06:43:13.039Z,37.97
2017-11-04T06:44:18.603Z,38.17
2017-11-04T06:45:25.188Z,37.75
2017-11-04T06:46:30.953Z,39.50
2017-11-04T06:47:36.370Z,39.70
2017-11-04T06:48:41.980Z,39.40
2017-11-04T06:49:47.543Z,37.65
2017-11-04T06:50:52.970Z,37.70
2017-11-04T06:51:58.467Z,37.80
2017-11-04T06:53:05.204Z,39.25
2017-11-04T06:54:46.757Z,38.22
2017-11-04T06:55:53.162Z,37.97
2017-11-04T06:56:58.622Z,37.60
2017-11-04T06:58:04.440Z,38.50
2017-11-04T06:59:09.839Z,38.90
2017-11-04T07:00:15.369Z,90.50
2017-11-04T07:01:20.813Z,46.03
2017-11-04T07:02:26.341Z,42.28
2017-11-04T07:03:33.431Z,39.95
2017-11-04T07:04:38.859Z,38.97
2017-11-04T07:05:44.342Z,39.30
2017-11-04T07:06:49.824Z,38.47
2017-11-04T07:07:55.306Z,38.60
2017-11-04T07:09:00.753Z,38.80
2017-11-04T07:10:06.267Z,38.42
2017-11-04T07:11:11.719Z,38.53
2017-11-04T07:12:17.153Z,39.40
2017-11-04T07:13:22.654Z,37.20
2017-11-04T07:14:28.108Z,40.75
2017-11-04T07:15:33.997Z,37.63
2017-11-04T07:16:39.551Z,39.30
2017-11-04T07:17:44.999Z,40.55
2017-11-04T07:18:50.461Z,38.43
2017-11-04T07:19:55.920Z,38.05
2017-11-04T07:21:01.360Z,37.75
2017-11-04T07:22:07.245Z,38.77
2017-11-04T07:23:12.725Z,39.05
2017-11-04T07:24:18.182Z,40.20
2017-11-04T07:25:23.631Z,38.80
2017-11-04T07:26:29.730Z,39.58
2017-11-04T07:27:35.292Z,38.38
2017-11-04T07:28:40.933Z,40.45
2017-11-04T07:29:46.402Z,39.28
2017-11-04T07:30:51.865Z,38.70
2017-11-04T07:31:57.490Z,40.60
2017-11-04T07:33:02.907Z,38.58
2017-11-04T07:34:08.659Z,37.72
2017-11-04T07:35:14.156Z,38.95
2017-11-04T07:36:19.928Z,38.90
2017-11-04T07:37:25.450Z,39.42
2017-11-04T07:38:31.358Z,42.60
2017-11-04T07:39:36.838Z,41.05
2017-11-04T07:40:42.360Z,40.80
2017-11-04T07:41:47.811Z,40.78
2017-11-04T07:42:53.256Z,40.47
2017-11-04T07:43:59.215Z,40.12
2017-11-04T07:45:04.790Z,41.00
2017-11-04T07:46:10.194Z,40.92
2017-11-04T07:47:15.686Z,42.33
2017-11-04T07:48:21.137Z,44.38
2017-11-04T07:49:26.656Z,46.45
2017-11-04T07:50:32.743Z,44.70
2017-11-04T07:51:38.681Z,43.75
2017-11-04T07:52:44.274Z,43.65
2017-11-04T07:53:50.053Z,42.42
2017-11-04T07:54:55.929Z,44.63
2017-11-04T07:56:01.824Z,45.83
2017-11-04T07:57:07.292Z,43.38
2017-11-04T07:58:12.850Z,42.35
2017-11-04T07:59:18.324Z,44.00
2017-11-04T08:00:24.134Z,43.72
2017-11-04T08:01:29.785Z,41.25
2017-11-04T08:02:35.619Z,43.22
2017-11-04T08:03:47.400Z,40.28
2017-11-04T08:04:53.001Z,40.03
2017-11-04T08:05:58.511Z,39.97
2017-11-04T08:07:04.580Z,39.75
2017-11-04T08:08:10.047Z,39.85
2017-11-04T08:09:15.688Z,39.60
2017-11-04T08:10:22.077Z,38.55
2017-11-04T08:11:28.128Z,38.97
2017-11-04T08:12:33.667Z,39.72
2017-11-04T08:13:39.115Z,37.38
2017-11-04T08:14:44.742Z,38.15
2017-11-04T08:15:50.705Z,40.55
2017-11-04T08:16:56.175Z,37.03
2017-11-04T08:18:02.104Z,39.58
2017-11-04T08:19:07.543Z,38.28
2017-11-04T08:20:12.972Z,37.70
2017-11-04T08:21:18.381Z,37.30
2017-11-04T08:22:24.121Z,38.00
2017-11-04T08:24:29.238Z,39.38
2017-11-04T08:25:35.612Z,39.35
2017-11-04T08:26:41.306Z,38.45
2017-11-04T08:27:46.942Z,39.30
2017-11-04T08:28:52.525Z,40.10
2017-11-04T08:29:58.090Z,40.70
2017-11-04T08:31:03.746Z,40.22
2017-11-04T08:32:09.568Z,39.10
2017-11-04T08:33:15.102Z,40.30
2017-11-04T08:34:20.670Z,40.17
2017-11-04T08:35:26.470Z,38.05
2017-11-04T08:36:31.989Z,39.65
2017-11-04T08:37:37.846Z,40.00
2017-11-04T08:38:44.100Z,39.42
2017-11-04T08:39:50.127Z,39.33
2017-11-04T08:40:57.040Z,39.10
2017-11-04T08:42:02.558Z,39.03
2017-11-04T08:43:08.185Z,40.15
2017-11-04T08:44:13.888Z,38.03
2017-11-04T08:45:19.514Z,39.13
2017-11-04T08:46:25.443Z,39.67
2017-11-04T08:47:31.274Z,40.12
2017-11-04T08:48:36.913Z,37.22
2017-11-04T08:49:42.462Z,39.03
2017-11-04T08:50:47.991Z,37.08
2017-11-04T08:51:53.602Z,36.97
2017-11-04T08:53:00.831Z,36.67
2017-11-04T08:54:06.458Z,36.83
2017-11-04T08:55:12.047Z,37.47
2017-11-04T08:56:17.547Z,37.65
2017-11-04T08:57:23.069Z,37.58
2017-11-04T08:58:29.191Z,36.22
2017-11-04T08:59:34.693Z,36.65
2017-11-04T09:00:40.293Z,36.08
2017-11-04T09:01:45.807Z,38.53
2017-11-04T09:02:51.562Z,38.63
2017-11-04T09:03:57.159Z,36.38
2017-11-04T09:05:02.797Z,36.37
2017-11-04T09:06:08.324Z,37.38
2017-11-04T09:07:13.877Z,36.40
2017-11-04T09:08:19.363Z,35.83
2017-11-04T09:09:24.979Z,35.92
2017-11-04T09:10:31.160Z,36.63
2017-11-04T09:11:37.114Z,35.58
2017-11-04T09:12:42.784Z,34.37
2017-11-04T09:13:48.229Z,34.67
2017-11-04T09:14:53.696Z,34.10
2017-11-04T09:15:59.170Z,35.03
2017-11-04T09:17:05.041Z,35.63
2017-11-04T09:18:10.588Z,35.60
2017-11-04T09:19:16.072Z,33.15
2017-11-04T09:20:21.721Z,35.08
2017-11-04T09:21:28.294Z,34.78
2017-11-04T09:22:33.833Z,35.13
2017-11-04T09:23:39.341Z,32.85
2017-11-04T09:24:44.965Z,35.20
2017-11-04T09:25:51.462Z,35.22
2017-11-04T09:26:57.277Z,35.80
2017-11-04T09:28:03.054Z,32.55
2017-11-04T09:29:08.656Z,35.40
2017-11-04T09:30:14.312Z,33.87
2017-11-04T09:31:19.824Z,34.88
2017-11-04T09:32:25.295Z,33.35
2017-11-04T09:33:30.760Z,32.92
2017-11-04T09:34:37.188Z,32.88
2017-11-04T09:35:43.356Z,30.92
2017-11-04T09:36:52.467Z,32.47
2017-11-04T09:37:58.253Z,32.10
2017-11-04T09:39:03.887Z,32.40
2017-11-04T09:40:09.336Z,32.97
2017-11-04T09:41:14.847Z,32.90
2017-11-04T09:42:20.406Z,31.75
2017-11-04T09:43:26.254Z,32.67
2017-11-04T09:44:31.798Z,32.38
2017-11-04T09:45:37.359Z,31.60
2017-11-04T09:46:42.928Z,31.00
2017-11-04T09:47:48.766Z,30.73
2017-11-04T09:48:54.358Z,31.52
2017-11-04T09:49:59.933Z,32.00
2017-11-04T09:51:05.407Z,32.95
2017-11-04T09:52:11.080Z,30.80
2017-11-04T09:53:16.666Z,33.03
2017-11-04T09:54:22.223Z,32.55
2017-11-04T09:55:28.611Z,30.58
2017-11-04T09:56:34.127Z,32.87
2017-11-04T09:57:39.677Z,33.55
2017-11-04T09:58:45.201Z,31.42
2017-11-04T09:59:50.855Z,31.85
2017-11-04T10:00:56.530Z,33.55
2017-11-04T10:02:02.117Z,31.70
2017-11-04T10:03:07.573Z,33.67
2017-11-04T10:04:13.082Z,31.87
2017-11-04T10:05:18.807Z,36.20
2017-11-04T10:06:24.420Z,42.58
2017-11-04T10:07:29.963Z,35.40
2017-11-04T10:08:35.647Z,30.40
2017-11-04T10:09:41.171Z,31.62
2017-11-04T10:10:46.704Z,30.35
2017-11-04T10:11:52.208Z,31.65
2017-11-04T10:12:57.828Z,30.08
2017-11-04T10:14:03.588Z,30.90
2017-11-04T10:15:09.259Z,30.65
2017-11-04T10:16:15.409Z,30.48
2017-11-04T10:17:23.278Z,30.42
2017-11-04T10:18:28.957Z,31.10
2017-11-04T10:19:34.638Z,30.10
2017-11-04T10:20:40.524Z,30.90
2017-11-04T10:21:46.172Z,29.33
2017-11-04T10:22:51.715Z,30.73
2017-11-04T10:23:57.810Z,30.65
2017-11-04T10:25:03.845Z,30.40
2017-11-04T10:26:09.466Z,30.55
2017-11-04T10:27:15.722Z,32.67
2017-11-04T10:28:21.226Z,31.33
2017-11-04T10:30:39.209Z,29.25
2017-11-04T10:31:48.656Z,29.70
2017-11-04T10:32:54.375Z,28.30
2017-11-04T10:33:59.959Z,29.08
2017-11-04T10:35:06.428Z,28.92
2017-11-04T10:36:13.313Z,28.00
2017-11-04T10:37:19.767Z,28.73
2017-11-04T10:38:25.754Z,27.43
2017-11-04T10:39:31.911Z,27.08
2017-11-04T10:40:39.258Z,26.67
2017-11-04T10:41:44.938Z,29.10
2017-11-04T10:42:50.527Z,33.20
2017-11-04T10:43:56.266Z,26.75
2017-11-04T10:45:01.809Z,26.12
2017-11-04T10:46:07.873Z,27.83
2017-11-04T10:47:14.362Z,26.30
2017-11-04T10:48:21.190Z,26.20
2017-11-04T10:49:27.159Z,25.27
2017-11-04T10:50:32.802Z,28.10
2017-11-04T10:51:41.056Z,26.40
2017-11-04T10:52:47.144Z,26.02
2017-11-04T10:53:53.010Z,25.80
2017-11-04T10:55:03.770Z,26.55
2017-11-04T10:56:09.685Z,26.15
2017-11-04T10:57:15.459Z,26.25
2017-11-04T10:58:21.214Z,25.60
2017-11-04T10:59:27.193Z,25.70
2017-11-04T11:00:33.440Z,25.75
2017-11-04T11:01:39.182Z,25.77
2017-11-04T11:02:45.061Z,24.75
2017-11-04T11:03:50.791Z,25.00
2017-11-04T11:04:56.530Z,24.77
2017-11-04T11:06:02.143Z,25.67
2017-11-04T11:07:07.684Z,25.37
2017-11-04T11:08:14.086Z,24.25
2017-11-04T11:09:19.915Z,23.65
2017-11-04T11:10:25.426Z,23.95
2017-11-04T11:11:30.910Z,26.85
2017-11-04T11:12:36.646Z,24.58
2017-11-04T11:13:42.863Z,25.27
2017-11-04T11:14:48.536Z,23.90
2017-11-04T11:15:54.070Z,24.67
2017-11-04T11:16:59.712Z,26.60
2017-11-04T11:18:04.976Z,25.65
2017-11-04T11:19:10.687Z,24.12
2017-11-04T11:20:16.272Z,22.92
2017-11-04T11:21:21.933Z,23.48
2017-11-04T11:22:27.447Z,22.75
2017-11-04T11:23:33.349Z,22.77
2017-11-04T11:24:38.895Z,24.52
2017-11-04T11:25:44.449Z,23.92
2017-11-04T11:26:50.008Z,24.35
2017-11-04T11:27:56.065Z,23.25
2017-11-04T11:29:02.187Z,24.90
2017-11-04T11:30:07.731Z,23.17
2017-11-04T11:31:13.295Z,23.40
2017-11-04T11:32:18.878Z,23.10
2017-11-04T11:33:24.608Z,24.07
2017-11-04T11:34:30.102Z,24.52
2017-11-04T11:35:35.757Z,24.13
2017-11-04T11:36:41.292Z,23.12
2017-11-04T11:37:46.770Z,23.12
2017-11-04T11:38:52.483Z,23.60
2017-11-04T11:39:58.262Z,23.62
2017-11-04T11:41:03.853Z,24.63
2017-11-04T11:42:09.385Z,24.10
2017-11-04T11:43:15.226Z,24.20
2017-11-04T11:44:20.817Z,23.20
2017-11-04T11:45:26.350Z,23.10
2017-11-04T11:46:31.756Z,23.45
2017-11-04T11:47:37.242Z,24.55
2017-11-04T11:48:42.832Z,23.10
2017-11-04T11:49:48.352Z,23.40
2017-11-04T11:50:54.375Z,23.98
2017-11-04T11:51:59.875Z,22.92
2017-11-04T11:53:05.579Z,23.27
2017-11-04T11:54:11.113Z,28.23
2017-11-04T11:55:16.678Z,25.60
2017-11-04T11:56:22.245Z,23.20
2017-11-04T11:57:27.735Z,23.70
2017-11-04T11:58:33.250Z,23.42
2017-11-04T11:59:38.919Z,24.15
2017-11-04T12:00:44.536Z,23.20
2017-11-04T12:01:50.030Z,21.80
2017-11-04T12:02:55.523Z,22.77
2017-11-04T12:04:01.384Z,23.97
2017-11-04T12:05:06.994Z,24.92
2017-11-04T12:06:12.655Z,24.15
2017-11-04T12:07:18.178Z,23.33
2017-11-04T12:08:23.954Z,24.10
2017-11-04T12:09:29.475Z,23.05
2017-11-04T12:10:34.961Z,24.17
2017-11-04T12:11:40.524Z,24.17
2017-11-04T12:12:46.058Z,68.93
2017-11-04T12:13:51.596Z,33.70
2017-11-04T12:14:58.327Z,23.23
2017-11-04T12:16:03.904Z,23.23
2017-11-04T12:17:09.518Z,23.30
2017-11-04T12:18:15.000Z,22.40
2017-11-04T12:19:20.948Z,22.40
2017-11-04T12:20:26.554Z,22.98
2017-11-04T12:21:32.247Z,22.10
2017-11-04T12:22:37.820Z,23.90
2017-11-04T12:23:43.413Z,22.75
2017-11-04T12:24:48.943Z,23.00
2017-11-04T12:25:54.540Z,23.55
2017-11-04T12:27:00.099Z,24.00
2017-11-04T12:28:05.609Z,28.00
2017-11-04T12:29:11.178Z,24.73
2017-11-04T12:30:17.337Z,24.15
2017-11-04T12:31:22.997Z,25.45
2017-11-04T12:32:28.585Z,24.00
2017-11-04T12:33:34.073Z,23.15
2017-11-04T12:34:39.637Z,24.50
2017-11-04T12:35:45.588Z,23.45
2017-11-04T12:36:51.117Z,23.80
2017-11-04T12:37:56.643Z,23.50
2017-11-04T12:39:02.211Z,24.40
2017-11-04T12:40:07.968Z,23.83
2017-11-04T12:41:15.295Z,24.08
2017-11-04T12:42:20.991Z,23.60
2017-11-04T12:43:26.471Z,24.05
2017-11-04T12:44:32.046Z,23.95
2017-11-04T12:45:37.556Z,22.80
2017-11-04T12:46:43.782Z,22.67
2017-11-04T12:47:49.541Z,24.23
2017-11-04T12:48:55.109Z,23.65
2017-11-04T12:50:00.689Z,24.75
2017-11-04T12:51:06.226Z,23.95
2017-11-04T12:52:11.868Z,23.20
2017-11-04T12:53:17.347Z,22.83
2017-11-04T12:54:22.898Z,23.90
2017-11-04T12:55:28.392Z,22.98
2017-11-04T12:56:33.943Z,24.02
2017-11-04T12:57:40.070Z,23.83
2017-11-04T12:58:45.712Z,24.17
2017-11-04T12:59:51.373Z,26.33
2017-11-04T13:00:56.956Z,26.53
2017-11-04T13:02:02.497Z,23.70
2017-11-04T13:03:08.306Z,22.00
2017-11-04T13:04:13.919Z,23.25
2017-11-04T13:05:19.396Z,22.62
2017-11-04T13:06:24.946Z,23.80
2017-11-04T13:07:31.079Z,23.30
2017-11-04T13:08:37.153Z,22.50
2017-11-04T13:09:42.728Z,23.20
2017-11-04T13:10:49.326Z,23.42
2017-11-04T13:11:55.102Z,21.73
2017-11-04T13:13:00.652Z,23.60
2017-11-04T13:14:06.763Z,22.45
2017-11-04T13:15:12.449Z,23.30
2017-11-04T13:16:18.032Z,23.90
2017-11-04T13:17:23.783Z,22.52
2017-11-04T13:18:29.416Z,22.40
2017-11-04T13:19:34.997Z,21.52
2017-11-04T13:20:40.630Z,21.50
2017-11-04T13:21:46.149Z,22.25
2017-11-04T13:22:51.884Z,20.58
2017-11-04T13:23:57.517Z,19.98
2017-11-04T13:25:03.394Z,21.50
2017-11-04T13:26:09.009Z,21.48
2017-11-04T13:27:14.638Z,20.40
2017-11-04T13:28:20.295Z,25.27
2017-11-04T13:29:25.861Z,23.92
2017-11-04T13:30:31.534Z,24.17
2017-11-04T13:31:37.093Z,23.20
2017-11-04T13:32:42.661Z,24.90
2017-11-04T13:33:48.229Z,22.50
2017-11-04T13:34:53.906Z,21.45
2017-11-04T13:35:59.849Z,20.77
2017-11-04T13:37:06.819Z,20.25
2017-11-04T13:38:12.391Z,20.37
2017-11-04T13:39:17.892Z,20.70
2017-11-04T13:40:23.524Z,18.00
2017-11-04T13:41:29.946Z,19.17
2017-11-04T13:42:35.887Z,19.33
2017-11-04T13:43:41.999Z,19.02
2017-11-04T13:44:47.767Z,20.05
2017-11-04T13:45:53.666Z,18.25
2017-11-04T13:47:00.057Z,19.83
2017-11-04T13:48:05.979Z,18.55
2017-11-04T13:49:11.762Z,17.52
2017-11-04T13:50:17.393Z,16.65
2017-11-04T13:51:22.958Z,15.23
2017-11-04T13:52:28.475Z,15.35
2017-11-04T13:53:34.005Z,14.13
2017-11-04T13:54:39.623Z,14.30
2017-11-04T13:55:45.240Z,12.97
2017-11-04T13:56:51.437Z,12.20
2017-11-04T13:57:57.375Z,16.95
2017-11-04T13:59:02.831Z,14.25
2017-11-04T14:00:08.401Z,15.35
2017-11-04T14:01:14.224Z,13.80
2017-11-04T14:02:19.772Z,14.73
2017-11-04T14:03:25.368Z,11.35
2017-11-04T14:04:30.907Z,10.98
2017-11-04T14:05:37.526Z,12.48
2017-11-04T14:06:43.220Z,13.10
2017-11-04T14:07:48.836Z,12.10
2017-11-04T14:08:54.523Z,12.50
2017-11-04T14:10:00.117Z,12.85